Time;durP1;ratioP1;P1;durP2;ratioP2;P2;SDS_P1;SDS_P2;PMS_P1;PMS_P2;Temp;Humidity;BMP_temperature;BMP_pressure;BME280_temperature;BME280_humidity;BME280_pressure;Samples;Min_cycle;Max_cycle;Signal;HPM_P1;HPM_P2
2024/02/03 00:02:58;;;;;;;10.38;4.43;;;11.50;59.10;;;;;;6274456;28;20070;-73
2024/02/03 00:05:59;;;;;;;11.18;5.80;;;11.40;59.20;;;;;;6259242;28;20477;-74
2024/02/03 00:09:00;;;;;;;10.38;4.97;;;11.40;59.20;;;;;;6277241;28;20569;-73
2024/02/03 00:12:01;;;;;;;11.57;5.22;;;11.40;59.30;;;;;;6276936;28;20369;-73
2024/02/03 00:15:04;;;;;;;13.00;5.82;;;11.40;59.30;;;;;;6278106;28;20025;-72
2024/02/03 00:18:05;;;;;;;12.20;5.57;;;11.40;59.30;;;;;;6275327;28;20113;-71
2024/02/03 00:21:06;;;;;;;8.32;4.68;;;11.40;59.30;;;;;;6274294;28;20111;-72
2024/02/03 00:24:07;;;;;;;7.10;4.25;;;11.40;59.20;;;;;;6278120;28;20055;-73
2024/02/03 00:27:11;;;;;;;9.07;3.88;;;11.40;59.20;;;;;;6279619;28;20051;-74
2024/02/03 00:30:13;;;;;;;15.93;5.95;;;11.40;59.10;;;;;;6265577;28;20052;-73
2024/02/03 00:33:14;;;;;;;12.02;5.38;;;11.40;59.20;;;;;;6260634;28;20495;-73
2024/02/03 00:36:25;;;;;;;11.55;6.15;;;11.40;59.20;;;;;;6288828;28;20052;-72
2024/02/03 00:39:27;;;;;;;13.20;5.82;;;11.40;59.50;;;;;;6278887;28;20016;-73
2024/02/03 00:42:29;;;;;;;13.98;5.72;;;11.30;59.70;;;;;;6275771;28;20137;-74
2024/02/03 00:45:30;;;;;;;9.70;4.70;;;11.30;60.00;;;;;;6258312;28;20135;-74
2024/02/03 00:48:31;;;;;;;8.68;4.68;;;11.20;60.00;;;;;;6286560;28;20077;-73
2024/02/03 00:51:32;;;;;;;6.43;3.75;;;11.20;59.90;;;;;;6262643;28;20437;-73
2024/02/03 00:54:33;;;;;;;12.20;5.47;;;11.20;59.70;;;;;;6283070;28;20083;-72
2024/02/03 00:57:34;;;;;;;24.30;4.85;;;11.10;59.40;;;;;;6287491;28;20017;-73
2024/02/03 01:00:35;;;;;;;9.60;4.25;;;11.10;59.40;;;;;;6281995;28;20112;-72
2024/02/03 01:03:36;;;;;;;12.73;5.18;;;11.00;59.40;;;;;;6283260;28;20027;-72
2024/02/03 01:06:37;;;;;;;9.93;4.25;;;11.00;59.40;;;;;;6267121;28;20037;-73
2024/02/03 01:09:38;;;;;;;8.50;4.75;;;10.90;59.50;;;;;;6265559;28;20496;-74
2024/02/03 01:12:40;;;;;;;9.90;5.22;;;10.90;59.50;;;;;;6280343;28;20021;-72
2024/02/03 01:15:42;;;;;;;11.70;6.00;;;10.90;59.50;;;;;;6278791;28;20024;-74
2024/02/03 01:18:43;;;;;;;18.17;6.45;;;10.90;59.60;;;;;;6283509;28;20429;-74
2024/02/03 01:21:44;;;;;;;18.17;6.72;;;10.90;59.60;;;;;;6280005;28;20051;-72
2024/02/03 01:24:47;;;;;;;12.43;5.45;;;10.90;59.60;;;;;;6281680;28;20047;-72
2024/02/03 01:27:49;;;;;;;20.15;7.50;;;10.90;59.70;;;;;;6279330;28;20017;-73
2024/02/03 01:30:50;;;;;;;18.35;6.93;;;10.90;59.80;;;;;;6282891;28;20548;-72
2024/02/03 01:33:52;;;;;;;24.10;6.45;;;10.90;59.90;;;;;;6264124;28;20024;-72
2024/02/03 01:36:52;;;;;;;14.88;6.32;;;10.90;60.00;;;;;;6282866;28;20088;-72
2024/02/03 01:39:53;;;;;;;15.75;6.72;;;10.80;60.10;;;;;;6282282;28;20038;-73
2024/02/03 01:43:03;;;;;;;15.07;6.38;;;10.80;60.30;;;;;;6279978;28;20015;-72
2024/02/03 01:46:06;;;;;;;18.35;6.35;;;10.80;60.60;;;;;;6247816;28;20480;-73
2024/02/03 01:49:07;;;;;;;12.18;5.65;;;10.70;60.70;;;;;;6277996;28;20028;-73
2024/02/03 01:52:13;;;;;;;13.27;5.03;;;10.70;60.80;;;;;;6278847;28;20477;-73
2024/02/03 01:55:14;;;;;;;14.38;5.28;;;10.70;60.90;;;;;;6281569;28;20031;-71
2024/02/03 01:58:15;;;;;;;8.85;4.30;;;10.70;61.00;;;;;;6264616;28;20230;-71
2024/02/03 02:01:16;;;;;;;8.45;4.38;;;10.70;60.90;;;;;;6283903;28;20043;-73
2024/02/03 02:04:20;;;;;;;7.07;3.92;;;10.70;60.60;;;;;;6262969;28;20016;-73
2024/02/03 02:07:21;;;;;;;10.98;3.97;;;10.70;60.10;;;;;;6283452;28;20062;-73
2024/02/03 02:10:22;;;;;;;8.70;3.80;;;10.80;60.10;;;;;;6257184;28;20476;-71
2024/02/03 02:13:22;;;;;;;9.73;3.80;;;10.80;59.90;;;;;;6280705;28;20575;-73
2024/02/03 02:16:24;;;;;;;8.68;4.20;;;10.80;59.80;;;;;;6282313;28;20488;-73
2024/02/03 02:19:26;;;;;;;9.55;3.95;;;10.80;59.60;;;;;;6297184;28;20017;-71
2024/02/03 02:22:29;;;;;;;14.77;4.53;;;10.80;59.50;;;;;;6282624;28;20032;-72
2024/02/03 02:25:29;;;;;;;9.82;4.53;;;10.70;59.50;;;;;;6286355;28;20464;-73
2024/02/03 02:28:32;;;;;;;14.80;6.45;;;10.80;59.50;;;;;;6281957;28;20028;-73
2024/02/03 02:31:32;;;;;;;15.88;6.30;;;10.70;59.60;;;;;;6287373;28;20043;-71
2024/02/03 02:34:33;;;;;;;15.52;6.10;;;10.70;59.70;;;;;;6281075;28;20028;-73
2024/02/03 02:37:35;;;;;;;18.70;6.55;;;10.70;59.90;;;;;;6278672;28;20031;-73
2024/02/03 02:40:35;;;;;;;11.85;6.20;;;10.70;60.10;;;;;;6261486;28;20036;-72
2024/02/03 02:43:36;;;;;;;13.68;6.03;;;10.70;60.40;;;;;;6278943;28;20020;-73
2024/02/03 02:46:39;;;;;;;12.40;5.40;;;10.60;60.50;;;;;;6280481;28;20423;-73
2024/02/03 02:49:39;;;;;;;20.10;6.25;;;10.60;60.50;;;;;;6277576;28;20021;-72
2024/02/03 02:52:41;;;;;;;15.80;6.80;;;10.60;60.70;;;;;;6279873;28;20040;-71
2024/02/03 02:55:42;;;;;;;18.67;7.25;;;10.50;60.70;;;;;;6264666;28;20111;-73
2024/02/03 02:58:44;;;;;;;12.93;6.20;;;10.50;60.70;;;;;;6280142;28;20098;-73
2024/02/03 03:01:47;;;;;;;16.17;6.70;;;10.50;60.70;;;;;;6266138;28;20563;-72
2024/02/03 03:04:48;;;;;;;20.80;7.30;;;10.50;60.60;;;;;;6275499;28;21716;-72
2024/02/03 03:07:49;;;;;;;17.45;6.43;;;10.50;60.60;;;;;;6281011;28;20112;-72
2024/02/03 03:10:50;;;;;;;14.50;6.60;;;10.50;60.60;;;;;;6261820;28;20047;-73
2024/02/03 03:13:51;;;;;;;12.73;5.57;;;10.40;60.60;;;;;;6263184;28;20075;-72
2024/02/03 03:16:52;;;;;;;12.00;6.03;;;10.40;60.80;;;;;;6278367;28;20092;-73
2024/02/03 03:19:53;;;;;;;16.00;6.45;;;10.40;60.80;;;;;;6281536;28;20086;-71
2024/02/03 03:22:54;;;;;;;15.05;6.38;;;10.40;61.00;;;;;;6278349;28;20380;-73
2024/02/03 03:25:56;;;;;;;15.88;7.07;;;10.30;61.00;;;;;;6283241;28;20361;-72
2024/02/03 03:28:58;;;;;;;13.57;5.88;;;10.30;61.00;;;;;;6267717;28;20091;-71
2024/02/03 03:31:59;;;;;;;13.57;6.30;;;10.30;61.10;;;;;;6277042;28;20035;-72
2024/02/03 03:35:00;;;;;;;13.23;5.72;;;10.30;61.00;;;;;;6277077;28;20048;-72
2024/02/03 03:38:02;;;;;;;13.52;6.50;;;10.20;61.10;;;;;;6263422;28;20564;-73
2024/02/03 03:41:03;;;;;;;14.10;5.97;;;10.20;61.40;;;;;;6279481;28;20036;-73
2024/02/03 03:44:04;;;;;;;10.93;5.32;;;10.10;61.60;;;;;;6279321;28;20441;-72
2024/02/03 03:47:05;;;;;;;14.63;5.78;;;10.10;61.80;;;;;;6278510;28;20381;-72
2024/02/03 03:50:08;;;;;;;11.65;6.05;;;10.00;61.90;;;;;;6274798;28;20096;-70
2024/02/03 03:53:09;;;;;;;11.73;5.63;;;9.90;62.00;;;;;;6278646;28;20073;-72
2024/02/03 03:56:11;;;;;;;12.80;5.20;;;9.90;62.30;;;;;;6277804;28;20093;-72
2024/02/03 03:59:12;;;;;;;17.63;6.40;;;9.90;62.50;;;;;;6276594;28;20024;-74
2024/02/03 04:02:14;;;;;;;12.75;5.35;;;9.80;62.60;;;;;;6277735;28;20504;-73
2024/02/03 04:05:15;;;;;;;9.57;4.63;;;9.80;62.80;;;;;;6282432;28;20256;-71
2024/02/03 04:08:16;;;;;;;14.38;5.78;;;9.80;62.80;;;;;;6261557;28;20029;-73
2024/02/03 04:11:18;;;;;;;18.23;5.47;;;9.70;62.90;;;;;;6266772;28;20127;-72
2024/02/03 04:14:20;;;;;;;10.32;5.07;;;9.70;63.00;;;;;;6271886;28;20043;-72
2024/02/03 04:17:21;;;;;;;10.20;5.18;;;9.70;63.10;;;;;;6274003;28;20021;-73
2024/02/03 04:20:23;;;;;;;8.60;4.40;;;9.70;63.10;;;;;;6259139;28;20047;-73
2024/02/03 04:23:23;;;;;;;13.85;4.78;;;9.70;63.10;;;;;;6281879;28;20023;-72
2024/02/03 04:26:24;;;;;;;10.18;5.00;;;9.70;63.10;;;;;;6285047;28;20353;-72
2024/02/03 04:29:25;;;;;;;16.25;6.00;;;9.70;63.20;;;;;;6279308;28;20066;-72
2024/02/03 04:32:26;;;;;;;11.45;4.88;;;9.60;63.30;;;;;;6282401;28;20012;-73
2024/02/03 04:35:28;;;;;;;8.80;4.68;;;9.60;63.30;;;;;;6281063;28;20184;-73
2024/02/03 04:38:28;;;;;;;10.30;4.97;;;9.50;63.30;;;;;;6282655;28;20079;-72
2024/02/03 04:41:30;;;;;;;11.10;5.28;;;9.50;63.40;;;;;;6271287;28;20487;-72
2024/02/03 04:44:32;;;;;;;9.25;4.75;;;9.40;63.50;;;;;;6279916;28;20158;-72
2024/02/03 04:47:33;;;;;;;11.35;5.63;;;9.40;63.80;;;;;;6293018;28;20017;-72
2024/02/03 04:50:34;;;;;;;11.30;4.50;;;9.30;63.90;;;;;;6284103;28;20008;-73
2024/02/03 04:53:35;;;;;;;14.65;4.97;;;9.20;64.10;;;;;;6282162;28;20044;-71
2024/02/03 04:56:35;;;;;;;12.98;5.50;;;9.20;64.10;;;;;;6281980;28;20033;-72
2024/02/03 04:59:36;;;;;;;16.48;6.75;;;9.10;64.30;;;;;;6280294;28;20368;-73
2024/02/03 05:02:38;;;;;;;10.90;5.30;;;9.10;64.40;;;;;;6281599;28;20029;-73
2024/02/03 05:05:39;;;;;;;13.00;5.53;;;9.00;64.40;;;;;;6286150;28;20119;-72
2024/02/03 05:08:40;;;;;;;13.00;5.72;;;9.00;64.40;;;;;;6265156;28;20024;-73
2024/02/03 05:11:41;;;;;;;9.40;5.90;;;9.00;64.40;;;;;;6282899;28;20726;-72
2024/02/03 05:14:42;;;;;;;12.80;5.05;;;8.90;64.30;;;;;;6278544;28;20541;-71
2024/02/03 05:17:42;;;;;;;10.02;4.55;;;8.90;65.20;;;;;;6281879;28;20093;-73
2024/02/03 05:20:44;;;;;;;12.63;5.10;;;8.90;64.30;;;;;;6282386;28;20028;-72
2024/02/03 05:23:46;;;;;;;11.02;5.38;;;8.90;64.30;;;;;;6286202;28;20120;-73
2024/02/03 05:26:47;;;;;;;13.52;4.90;;;8.90;64.20;;;;;;6264843;28;20123;-74
2024/02/03 05:29:48;;;;;;;9.38;5.40;;;8.90;64.20;;;;;;6281488;28;20467;-73
2024/02/03 05:32:49;;;;;;;9.73;4.68;;;8.80;64.10;;;;;;6283019;28;20016;-72
2024/02/03 05:35:50;;;;;;;26.33;6.57;;;8.90;64.10;;;;;;6279407;28;20105;-72
2024/02/03 05:38:51;;;;;;;14.25;4.72;;;8.90;64.00;;;;;;6279849;28;20055;-71
2024/02/03 05:41:51;;;;;;;14.43;6.20;;;8.80;64.00;;;;;;6263663;28;20505;-72
2024/02/03 05:44:52;;;;;;;13.15;6.25;;;8.80;63.90;;;;;;6281525;28;20098;-73
2024/02/03 05:47:53;;;;;;;15.82;7.93;;;8.80;64.00;;;;;;6282869;28;20008;-72
2024/02/03 05:50:54;;;;;;;13.40;6.07;;;8.80;64.00;;;;;;6281188;28;20058;-72
2024/02/03 05:53:57;;;;;;;12.50;5.82;;;8.80;64.00;;;;;;6273039;28;20469;-73
2024/02/03 05:56:57;;;;;;;12.82;6.13;;;8.80;63.90;;;;;;6282045;28;20044;-74
2024/02/03 05:59:58;;;;;;;11.80;5.30;;;8.70;64.00;;;;;;6280057;28;20029;-71
2024/02/03 06:03:00;;;;;;;14.60;6.18;;;8.70;64.00;;;;;;6281501;28;20020;-72
2024/02/03 06:06:01;;;;;;;12.18;4.72;;;8.70;64.00;;;;;;6261282;28;20109;-71
2024/02/03 06:09:03;;;;;;;12.80;6.25;;;8.70;63.90;;;;;;6270459;28;20017;-74
2024/02/03 06:12:04;;;;;;;20.48;7.50;;;8.70;63.90;;;;;;6281136;28;20509;-73
2024/02/03 06:15:05;;;;;;;13.55;7.03;;;8.60;63.80;;;;;;6279344;28;20621;-70
2024/02/03 06:18:07;;;;;;;10.52;5.20;;;8.60;64.10;;;;;;6282366;28;20016;-73
2024/02/03 06:21:10;;;;;;;21.67;6.90;;;8.60;64.20;;;;;;6279895;28;20032;-74
2024/02/03 06:24:11;;;;;;;15.10;5.95;;;8.50;64.10;;;;;;6264430;28;20678;-72
2024/02/03 06:27:12;;;;;;;16.67;5.20;;;8.50;64.20;;;;;;6276204;28;20025;-73
2024/02/03 06:30:13;;;;;;;14.13;5.88;;;8.40;64.50;;;;;;6279024;28;20021;-73
2024/02/03 06:33:14;;;;;;;14.10;5.90;;;8.40;64.60;;;;;;6282566;28;20024;-73
2024/02/03 06:36:15;;;;;;;20.23;6.88;;;8.40;64.70;;;;;;6278882;28;20352;-72
2024/02/03 06:39:16;;;;;;;15.65;6.97;;;8.40;64.70;;;;;;6272859;28;20023;-73
2024/02/03 06:42:16;;;;;;;11.70;6.20;;;8.40;64.70;;;;;;6278359;28;20050;-72
2024/02/03 06:45:17;;;;;;;15.57;7.15;;;8.40;64.70;;;;;;6277110;28;20118;-73
2024/02/03 06:48:18;;;;;;;10.07;5.38;;;8.50;64.70;;;;;;6263008;28;20062;-73
2024/02/03 06:51:19;;;;;;;11.10;5.50;;;8.50;65.60;;;;;;6279929;28;20020;-72
2024/02/03 06:54:20;;;;;;;11.38;6.15;;;8.50;64.80;;;;;;6280170;28;20019;-74
2024/02/03 06:57:21;;;;;;;13.82;7.55;;;8.40;64.80;;;;;;6266496;28;20046;-73
2024/02/03 07:00:22;;;;;;;15.18;7.47;;;8.40;64.90;;;;;;6261723;28;20672;-73
2024/02/03 07:03:25;;;;;;;14.27;7.03;;;8.30;65.00;;;;;;6269081;28;20105;-73
2024/02/03 07:06:27;;;;;;;15.43;8.23;;;8.30;66.00;;;;;;6279803;28;20640;-73
2024/02/03 07:09:28;;;;;;;14.25;7.40;;;8.30;65.30;;;;;;6278532;28;20094;-73
2024/02/03 07:12:29;;;;;;;13.98;6.07;;;8.30;65.40;;;;;;6281020;28;20020;-73
2024/02/03 07:15:29;;;;;;;14.18;6.75;;;8.30;65.30;;;;;;6280723;28;20017;-74
2024/02/03 07:18:30;;;;;;;14.05;5.93;;;8.30;65.20;;;;;;6278438;28;20024;-73
2024/02/03 07:21:31;;;;;;;13.23;6.45;;;8.30;65.20;;;;;;6260595;28;20034;-72
2024/02/03 07:24:32;;;;;;;11.63;5.32;;;8.30;65.20;;;;;;6276501;28;20020;-71
2024/02/03 07:27:33;;;;;;;16.20;7.07;;;8.30;65.20;;;;;;6280422;28;20024;-73
2024/02/03 07:30:34;;;;;;;10.02;5.57;;;8.40;65.30;;;;;;6277183;28;20031;-74
2024/02/03 07:33:35;;;;;;;16.90;6.55;;;8.30;65.20;;;;;;6278720;28;20034;-72
2024/02/03 07:36:35;;;;;;;12.27;7.03;;;8.40;65.20;;;;;;6262250;28;20461;-73
2024/02/03 07:39:36;;;;;;;11.23;6.28;;;8.50;65.10;;;;;;6278474;28;20089;-73
2024/02/03 07:42:37;;;;;;;11.35;6.10;;;8.50;65.00;;;;;;6279302;28;20544;-72
2024/02/03 07:45:38;;;;;;;14.15;6.13;;;8.60;64.90;;;;;;6258975;28;20044;-73
2024/02/03 07:48:39;;;;;;;9.68;5.28;;;8.70;64.90;;;;;;6277445;28;20112;-73
2024/02/03 07:51:40;;;;;;;13.70;6.53;;;8.70;64.70;;;;;;6278781;28;20203;-72
2024/02/03 07:54:40;;;;;;;14.98;5.80;;;8.70;64.70;;;;;;6279539;28;20508;-72
2024/02/03 07:57:41;;;;;;;18.70;7.00;;;8.70;64.60;;;;;;6277423;28;20672;-74
2024/02/03 08:00:42;;;;;;;14.98;6.03;;;8.80;64.60;;;;;;6273748;28;20032;-73
2024/02/03 08:03:45;;;;;;;13.23;6.38;;;8.90;64.70;;;;;;6280076;28;20649;-72
2024/02/03 08:06:45;;;;;;;10.55;5.15;;;8.90;64.40;;;;;;6271706;28;20115;-73
2024/02/03 08:09:47;;;;;;;14.23;5.97;;;8.90;64.20;;;;;;6277370;28;20020;-72
2024/02/03 08:12:50;;;;;;;12.15;5.90;;;8.90;64.20;;;;;;6273035;28;20116;-72
2024/02/03 08:15:51;;;;;;;13.55;6.50;;;8.90;64.20;;;;;;6260842;28;20040;-72
2024/02/03 08:18:51;;;;;;;11.82;6.63;;;9.00;64.20;;;;;;6276883;28;20542;-74
2024/02/03 08:21:52;;;;;;;17.23;6.70;;;9.00;64.20;;;;;;6278399;28;20550;-72
2024/02/03 08:24:53;;;;;;;10.57;6.28;;;9.00;64.20;;;;;;6283329;28;20046;-72
2024/02/03 08:27:54;;;;;;;12.75;6.18;;;9.00;64.10;;;;;;6261790;28;20021;-72
2024/02/03 08:30:55;;;;;;;10.07;5.78;;;9.20;64.10;;;;;;6276625;28;20472;-72
2024/02/03 08:33:57;;;;;;;12.43;5.53;;;9.20;63.80;;;;;;6277803;28;20023;-71
2024/02/03 08:36:58;;;;;;;14.52;6.63;;;9.30;63.70;;;;;;6276628;28;20690;-73
2024/02/03 08:40:00;;;;;;;12.23;5.95;;;9.30;63.50;;;;;;6280813;28;20020;-72
2024/02/03 08:43:01;;;;;;;21.30;7.03;;;9.30;63.50;;;;;;6277739;28;20084;-73
2024/02/03 08:46:02;;;;;;;11.60;5.88;;;9.40;63.40;;;;;;6246954;28;20055;-72
2024/02/03 08:49:03;;;;;;;12.30;5.20;;;9.50;63.50;;;;;;6278091;28;20024;-72
2024/02/03 08:52:04;;;;;;;11.77;5.15;;;9.60;63.40;;;;;;6279045;28;20080;-71
2024/02/03 08:55:06;;;;;;;17.65;5.82;;;9.70;63.10;;;;;;6261282;28;20120;-73
2024/02/03 08:58:06;;;;;;;12.80;5.35;;;9.70;62.90;;;;;;6258829;28;20132;-73
2024/02/03 09:01:09;;;;;;;15.60;6.78;;;9.90;62.90;;;;;;6277473;28;20038;-74
2024/02/03 09:04:10;;;;;;;12.07;5.90;;;10.00;62.70;;;;;;6278921;28;20028;-74
2024/02/03 09:07:11;;;;;;;12.70;6.03;;;10.20;62.50;;;;;;6276991;28;20032;-74
2024/02/03 09:10:13;;;;;;;10.55;5.85;;;10.30;62.20;;;;;;6280616;28;20455;-72
2024/02/03 09:13:15;;;;;;;19.48;6.65;;;10.40;61.80;;;;;;6282053;28;20112;-73
2024/02/03 09:16:16;;;;;;;13.55;6.30;;;10.50;61.60;;;;;;6263575;28;20067;-74
2024/02/03 09:19:16;;;;;;;16.67;6.97;;;10.40;61.40;;;;;;6281750;28;20666;-73
2024/02/03 09:22:21;;;;;;;12.13;6.07;;;10.60;61.40;;;;;;6278525;28;20017;-73
2024/02/03 09:25:23;;;;;;;11.65;5.85;;;10.70;61.20;;;;;;6289745;28;20028;-73
2024/02/03 09:28:24;;;;;;;12.77;6.50;;;10.80;61.00;;;;;;6278713;28;20013;-74
2024/02/03 09:31:25;;;;;;;12.07;5.90;;;10.90;60.80;;;;;;6281113;28;20035;-74
2024/02/03 09:34:26;;;;;;;13.50;5.80;;;11.00;60.60;;;;;;6263736;28;20054;-73
2024/02/03 09:37:27;;;;;;;14.20;7.28;;;11.00;60.90;;;;;;6281692;28;20024;-73
2024/02/03 09:40:28;;;;;;;12.13;5.22;;;11.10;60.00;;;;;;6283806;28;20573;-73
2024/02/03 09:43:29;;;;;;;11.32;5.95;;;11.20;60.00;;;;;;6279069;28;20696;-73
2024/02/03 09:46:30;;;;;;;11.50;5.45;;;11.30;59.80;;;;;;6277951;28;20123;-74
2024/02/03 09:49:31;;;;;;;15.95;6.40;;;11.40;59.50;;;;;;6279304;28;20333;-74
2024/02/03 09:52:34;;;;;;;12.05;5.05;;;11.50;59.30;;;;;;6283111;28;20025;-74
2024/02/03 09:55:34;;;;;;;12.20;5.90;;;11.60;59.10;;;;;;6262839;28;20039;-74
2024/02/03 09:58:35;;;;;;;15.90;6.80;;;11.60;59.00;;;;;;6260071;28;20532;-73
2024/02/03 10:01:36;;;;;;;15.15;6.45;;;11.70;58.90;;;;;;6277850;28;20020;-73
2024/02/03 10:04:38;;;;;;;11.70;6.22;;;11.80;58.70;;;;;;6276711;28;20810;-73
2024/02/03 10:07:39;;;;;;;11.70;6.13;;;11.80;58.50;;;;;;6276129;28;20141;-74
2024/02/03 10:10:42;;;;;;;13.55;6.60;;;11.90;58.30;;;;;;6285441;28;20024;-74
2024/02/03 10:13:43;;;;;;;12.07;6.32;;;12.00;58.20;;;;;;6281340;28;20146;-74
2024/02/03 10:16:45;;;;;;;11.55;6.05;;;12.10;58.00;;;;;;6257770;28;20020;-73
2024/02/03 10:19:45;;;;;;;13.50;5.70;;;12.10;57.90;;;;;;6263179;28;20090;-74
2024/02/03 10:22:46;;;;;;;12.32;6.00;;;12.30;57.40;;;;;;6263151;28;20095;-72
2024/02/03 10:25:55;;;;;;;10.27;5.30;;;12.40;56.80;;;;;;6280643;28;20036;-73
2024/02/03 10:28:56;;;;;;;10.55;4.47;;;12.70;56.10;;;;;;6271291;28;20075;-74
2024/02/03 10:31:57;;;;;;;10.85;5.30;;;13.10;55.80;;;;;;6280160;28;20024;-73
2024/02/03 10:34:57;;;;;;;16.55;5.10;;;13.40;54.90;;;;;;6280849;28;20025;-73
2024/02/03 10:37:59;;;;;;;13.48;5.47;;;13.70;54.00;;;;;;6262452;28;20029;-75
2024/02/03 10:41:03;;;;;;;10.52;5.40;;;13.90;53.70;;;;;;6265752;28;20029;-75
2024/02/03 10:44:07;;;;;;;15.13;5.32;;;14.00;53.70;;;;;;6277758;28;20551;-72
2024/02/03 10:47:08;;;;;;;8.77;4.57;;;14.20;53.50;;;;;;6279118;28;20076;-74
2024/02/03 10:50:13;;;;;;;13.00;4.22;;;14.40;53.00;;;;;;6275744;28;20016;-74
2024/02/03 10:53:30;;;;;;;11.45;5.70;;;14.60;52.60;;;;;;6275506;28;20038;-73
2024/02/03 10:56:35;;;;;;;17.00;6.57;;;14.90;51.70;;;;;;6260785;28;20480;-73
2024/02/03 10:59:37;;;;;;;14.30;6.03;;;15.00;50.70;;;;;;6274563;28;20092;-73
2024/02/03 11:02:49;;;;;;;9.93;5.05;;;15.20;50.60;;;;;;6279138;28;20054;-73
2024/02/03 11:05:56;;;;;;;12.77;6.18;;;15.60;50.20;;;;;;6260639;28;20036;-73
2024/02/03 11:09:23;;;;;;;10.13;5.10;;;16.00;49.40;;;;;;6278837;28;20013;-73
2024/02/03 11:12:34;;;;;;;16.17;5.25;;;16.50;48.00;;;;;;6275721;28;20027;-74
2024/02/03 11:15:41;;;;;;;13.90;6.25;;;16.90;47.00;;;;;;6274834;28;20071;-72
2024/02/03 11:18:42;;;;;;;11.35;6.47;;;17.40;46.10;;;;;;6264230;28;20144;-74
2024/02/03 11:21:45;;;;;;;13.25;6.05;;;17.90;44.80;;;;;;6277612;28;20378;-74
2024/02/03 11:24:47;;;;;;;15.05;7.43;;;18.30;43.80;;;;;;6279715;28;20029;-74
2024/02/03 11:27:49;;;;;;;13.90;6.90;;;18.70;43.10;;;;;;6238055;28;20033;-75
2024/02/03 11:31:09;;;;;;;15.45;7.82;;;19.20;42.10;;;;;;6275370;28;20020;-73
2024/02/03 11:34:13;;;;;;;12.70;7.07;;;19.70;41.40;;;;;;6275846;28;20132;-73
2024/02/03 11:37:15;;;;;;;16.90;7.50;;;20.30;40.40;;;;;;6278616;28;20024;-74
2024/02/03 11:40:16;;;;;;;17.42;6.70;;;20.70;39.00;;;;;;6277409;28;20074;-73
2024/02/03 11:43:18;;;;;;;15.40;7.10;;;21.00;38.10;;;;;;6280719;28;20112;-74
2024/02/03 11:46:19;;;;;;;16.05;6.97;;;21.40;37.60;;;;;;6263697;28;20042;-75
2024/02/03 11:49:20;;;;;;;24.10;8.52;;;21.90;36.70;;;;;;6277609;28;20047;-74
2024/02/03 11:52:23;;;;;;;24.50;9.45;;;22.30;36.20;;;;;;6284553;28;20061;-74
2024/02/03 11:55:24;;;;;;;17.75;7.30;;;22.80;34.90;;;;;;6263067;28;20209;-73
2024/02/03 11:58:24;;;;;;;19.88;7.25;;;23.10;34.00;;;;;;6281554;28;20433;-75
2024/02/03 12:01:27;;;;;;;12.93;7.05;;;23.40;33.70;;;;;;6277569;28;20092;-74
2024/02/03 12:04:29;;;;;;;18.45;7.10;;;23.80;33.10;;;;;;6276385;28;20154;-76
2024/02/03 12:07:30;;;;;;;14.20;6.72;;;24.00;31.90;;;;;;6277397;28;20056;-74
2024/02/03 12:10:32;;;;;;;13.43;6.60;;;24.10;31.80;;;;;;6275510;28;20062;-74
2024/02/03 12:13:41;;;;;;;13.40;5.90;;;24.10;31.30;;;;;;6260110;28;20055;-75
2024/02/03 12:16:44;;;;;;;13.82;5.72;;;23.80;32.10;;;;;;6281204;28;20162;-75
2024/02/03 12:19:45;;;;;;;10.93;5.50;;;23.60;32.90;;;;;;6278650;28;20072;-76
2024/02/03 12:22:47;;;;;;;14.13;5.53;;;23.20;32.70;;;;;;6278569;28;20017;-75
2024/02/03 12:25:48;;;;;;;17.83;6.82;;;22.40;33.80;;;;;;6274015;28;20032;-75
2024/02/03 12:28:49;;;;;;;9.00;4.60;;;21.70;35.00;;;;;;6260503;28;20483;-75
2024/02/03 12:31:50;;;;;;;8.13;4.90;;;21.20;35.70;;;;;;6260234;28;20100;-75
2024/02/03 12:34:51;;;;;;;11.52;5.00;;;20.40;36.30;;;;;;6281846;28;20499;-73
2024/02/03 12:37:53;;;;;;;8.35;4.57;;;19.80;37.30;;;;;;6278146;28;20028;-73
2024/02/03 12:40:53;;;;;;;18.50;8.10;;;19.30;38.20;;;;;;6279110;28;20024;-74
2024/02/03 12:43:54;;;;;;;12.82;5.55;;;18.90;39.00;;;;;;6277955;28;20540;-73
2024/02/03 12:46:55;;;;;;;18.35;5.80;;;18.60;39.50;;;;;;6280129;28;20102;-72
2024/02/03 12:49:56;;;;;;;10.52;5.68;;;18.40;39.90;;;;;;6274598;28;20108;-76
2024/02/03 12:52:58;;;;;;;11.63;4.75;;;18.20;40.30;;;;;;6279580;28;20036;-76
2024/02/03 12:55:59;;;;;;;8.63;5.07;;;18.00;40.60;;;;;;6280338;28;20009;-73
2024/02/03 12:59:00;;;;;;;13.18;4.95;;;17.90;41.00;;;;;;6263694;28;20090;-76
2024/02/03 13:02:02;;;;;;;9.35;4.57;;;17.70;41.30;;;;;;6281485;28;20047;-75
2024/02/03 13:05:03;;;;;;;11.27;4.70;;;17.60;41.70;;;;;;6283301;28;20193;-75
2024/02/03 13:08:04;;;;;;;12.32;6.25;;;17.50;41.80;;;;;;6283856;28;20512;-76
2024/02/03 13:11:06;;;;;;;12.10;5.28;;;17.40;42.10;;;;;;6264365;28;20191;-75
2024/02/03 13:14:08;;;;;;;10.20;5.30;;;17.30;42.20;;;;;;6287034;28;20034;-76
2024/02/03 13:17:10;;;;;;;8.43;4.07;;;17.20;42.60;;;;;;6281710;28;20025;-78
2024/02/03 13:20:11;;;;;;;15.70;4.88;;;17.20;42.50;;;;;;6265224;28;20044;-77
2024/02/03 13:23:12;;;;;;;9.23;4.28;;;17.10;42.60;;;;;;6278002;28;20033;-76
2024/02/03 13:26:13;;;;;;;6.40;3.65;;;17.10;42.60;;;;;;6281012;28;20033;-76
2024/02/03 13:29:16;;;;;;;13.00;3.50;;;17.10;42.60;;;;;;6282683;28;20389;-77
2024/02/03 13:32:20;;;;;;;6.47;3.60;;;17.00;42.40;;;;;;6276929;28;21849;-76
2024/02/03 13:35:21;;;;;;;6.38;3.58;;;17.00;42.40;;;;;;6266107;28;20030;-76
2024/02/03 13:38:24;;;;;;;7.07;3.80;;;17.00;42.60;;;;;;6282825;28;20621;-76
2024/02/03 13:41:26;;;;;;;7.47;3.60;;;16.90;42.70;;;;;;6277446;28;20086;-75
2024/02/03 13:44:27;;;;;;;8.57;4.05;;;16.90;43.00;;;;;;6278611;28;20108;-75
2024/02/03 13:47:28;;;;;;;9.90;3.92;;;16.90;43.00;;;;;;6296048;28;20027;-76
2024/02/03 13:50:28;;;;;;;6.82;3.28;;;16.90;43.20;;;;;;6277107;28;20343;-76
2024/02/03 13:53:29;;;;;;;7.32;3.90;;;16.90;43.30;;;;;;6277222;28;20070;-75
2024/02/03 13:56:31;;;;;;;7.25;3.13;;;16.90;43.40;;;;;;6280206;28;20012;-75
2024/02/03 13:59:31;;;;;;;6.75;3.40;;;16.80;43.60;;;;;;6287159;28;20029;-74
2024/02/03 14:02:32;;;;;;;9.60;3.53;;;16.80;43.80;;;;;;6275684;28;20043;-74
2024/02/03 14:05:33;;;;;;;8.40;3.70;;;16.70;43.90;;;;;;6277441;28;20035;-76
2024/02/03 14:08:34;;;;;;;6.70;3.22;;;16.80;44.10;;;;;;6282546;28;20008;-75
2024/02/03 14:11:35;;;;;;;8.30;3.72;;;16.80;44.10;;;;;;6280233;28;20535;-75
2024/02/03 14:14:36;;;;;;;7.72;3.53;;;16.80;44.10;;;;;;6279267;28;20017;-75
2024/02/03 14:17:37;;;;;;;8.15;4.07;;;16.90;44.30;;;;;;6278075;28;20124;-75
2024/02/03 14:20:39;;;;;;;7.20;3.22;;;16.80;44.40;;;;;;6281954;28;20092;-76
2024/02/03 14:23:40;;;;;;;8.32;4.40;;;16.90;44.60;;;;;;6260943;28;20074;-75
2024/02/03 14:26:42;;;;;;;11.80;4.10;;;16.90;44.70;;;;;;6278959;28;20036;-76
2024/02/03 14:29:43;;;;;;;10.20;4.43;;;16.90;44.70;;;;;;6268628;28;20440;-76
2024/02/03 14:32:44;;;;;;;13.80;4.68;;;16.90;44.80;;;;;;6280301;28;20012;-76
2024/02/03 14:35:45;;;;;;;9.10;3.85;;;16.90;44.80;;;;;;6275384;28;20098;-75
2024/02/03 14:38:46;;;;;;;10.73;4.28;;;16.90;44.90;;;;;;6283169;28;20035;-76
2024/02/03 14:41:48;;;;;;;8.80;4.75;;;16.90;45.00;;;;;;6273634;28;20562;-75
2024/02/03 14:44:50;;;;;;;13.82;5.22;;;16.90;45.20;;;;;;6274771;28;20060;-75
2024/02/03 14:47:51;;;;;;;10.88;4.22;;;17.00;45.30;;;;;;6283260;28;20025;-76
2024/02/03 14:50:52;;;;;;;11.50;5.00;;;16.90;45.30;;;;;;6279343;28;20369;-76
2024/02/03 14:53:53;;;;;;;11.05;5.05;;;16.90;45.50;;;;;;6280136;28;20020;-76
2024/02/03 14:56:54;;;;;;;14.57;6.13;;;16.90;45.70;;;;;;6258131;28;20152;-76
2024/02/03 14:59:55;;;;;;;8.73;4.78;;;16.90;45.90;;;;;;6261262;28;20087;-75
2024/02/03 15:02:56;;;;;;;11.65;5.97;;;16.90;46.10;;;;;;6279113;28;20460;-74
2024/02/03 15:05:57;;;;;;;9.20;5.20;;;16.90;46.20;;;;;;6273759;28;20044;-74
2024/02/03 15:08:59;;;;;;;11.43;4.78;;;16.90;46.20;;;;;;6280804;28;20092;-75
2024/02/03 15:12:01;;;;;;;12.10;5.32;;;16.90;46.30;;;;;;6260513;28;20023;-76
2024/02/03 15:15:06;;;;;;;11.73;5.90;;;16.90;46.40;;;;;;6256408;28;20021;-74
2024/02/03 15:18:07;;;;;;;15.20;5.80;;;16.80;46.40;;;;;;6277213;28;20119;-75
2024/02/03 15:21:09;;;;;;;10.38;5.13;;;16.80;46.60;;;;;;6272063;28;20036;-77
2024/02/03 15:24:10;;;;;;;14.35;5.50;;;16.80;46.70;;;;;;6281436;28;20024;-74
2024/02/03 15:27:11;;;;;;;15.38;6.85;;;16.70;46.90;;;;;;6260563;28;20059;-75
2024/02/03 15:30:11;;;;;;;20.42;6.03;;;16.70;47.20;;;;;;6255765;28;20401;-75
2024/02/03 15:33:15;;;;;;;12.93;6.30;;;16.60;47.30;;;;;;6272758;28;20715;-75
2024/02/03 15:36:16;;;;;;;12.65;5.82;;;16.50;47.50;;;;;;6283423;28;20529;-75
2024/02/03 15:39:16;;;;;;;15.43;6.53;;;16.50;47.60;;;;;;6277747;28;20025;-76
2024/02/03 15:42:19;;;;;;;15.55;6.15;;;16.50;47.80;;;;;;6276394;28;20417;-75